createdAt,value
2022-12-23T00:00:14.384Z,90.65
2022-12-23T00:02:38.173Z,95.97
2022-12-23T00:05:00.794Z,91.20
2022-12-23T00:07:23.431Z,95.93
2022-12-23T00:09:47.430Z,88.22
2022-12-23T00:12:28.465Z,88.85
2022-12-23T00:15:05.926Z,87.70
2022-12-23T00:17:28.525Z,87.43
2022-12-23T00:19:51.433Z,84.55
2022-12-23T00:22:14.113Z,89.68
2022-12-23T00:24:36.679Z,86.65
2022-12-23T00:26:59.295Z,89.63
2022-12-23T00:29:21.823Z,85.18
2022-12-23T00:31:44.786Z,84.40
2022-12-23T00:34:07.412Z,84.47
2022-12-23T00:36:30.824Z,87.35
2022-12-23T00:39:12.191Z,85.37
2022-12-23T00:41:53.626Z,81.20
2022-12-23T00:44:16.424Z,85.95
2022-12-23T00:46:38.947Z,94.72
2022-12-23T00:49:20.917Z,82.65
2022-12-23T00:51:43.699Z,79.93
2022-12-23T00:54:07.108Z,89.25
2022-12-23T00:56:30.192Z,82.38
2022-12-23T00:58:52.996Z,90.32
2022-12-23T01:01:34.321Z,82.03
2022-12-23T01:04:16.950Z,81.30
2022-12-23T01:06:39.490Z,80.68
2022-12-23T01:09:02.115Z,84.13
2022-12-23T01:11:24.727Z,80.47
2022-12-23T01:13:47.497Z,85.50
2022-12-23T01:16:16.888Z,81.23
2022-12-23T01:18:41.001Z,80.60
2022-12-23T01:21:05.648Z,82.10
2022-12-23T01:23:28.304Z,83.68
2022-12-23T01:26:01.881Z,89.40
2022-12-23T01:28:24.992Z,83.77
2022-12-23T01:30:47.645Z,83.55
2022-12-23T01:33:10.483Z,82.93
2022-12-23T01:35:33.038Z,82.22
2022-12-23T01:37:55.627Z,86.13
2022-12-23T01:40:18.489Z,81.43
2022-12-23T01:42:44.064Z,83.20
2022-12-23T01:45:21.432Z,81.93
2022-12-23T01:47:50.713Z,88.13
2022-12-23T01:50:25.581Z,86.88
2022-12-23T01:53:09.812Z,78.67
2022-12-23T01:55:43.801Z,82.07
2022-12-23T01:58:37.900Z,93.88
2022-12-23T02:01:20.031Z,82.18
2022-12-23T02:03:44.622Z,87.72
2022-12-23T02:06:27.694Z,76.63
2022-12-23T02:09:09.286Z,86.10
2022-12-23T02:11:37.450Z,87.88
2022-12-23T02:14:56.578Z,80.50
2022-12-23T02:17:45.020Z,85.32
2022-12-23T02:20:26.165Z,87.77
2022-12-23T02:23:30.793Z,91.78
2022-12-23T02:26:19.822Z,91.32
2022-12-23T02:29:04.109Z,93.75
2022-12-23T02:32:07.800Z,102.82
2022-12-23T02:34:40.530Z,102.23
2022-12-23T02:37:23.021Z,92.10
2022-12-23T02:39:55.096Z,95.97
2022-12-23T02:42:22.887Z,114.85
2022-12-23T02:44:58.928Z,109.10
2022-12-23T02:47:26.867Z,95.53
2022-12-23T02:49:55.199Z,103.28
2022-12-23T02:52:21.732Z,105.60
2022-12-23T02:54:54.445Z,100.53
2022-12-23T02:57:24.303Z,117.55
2022-12-23T02:59:51.082Z,108.13
2022-12-23T03:02:13.859Z,118.82
2022-12-23T03:04:40.502Z,96.65
2022-12-23T03:07:07.708Z,93.18
2022-12-23T03:09:42.398Z,95.65
2022-12-23T03:12:32.232Z,93.97
2022-12-23T03:15:22.575Z,97.05
2022-12-23T03:18:08.388Z,157.02
2022-12-23T03:21:09.206Z,88.40
2022-12-23T03:23:44.544Z,90.93
2022-12-23T03:26:27.430Z,125.87
2022-12-23T03:28:56.178Z,81.75
2022-12-23T03:31:25.337Z,91.65
2022-12-23T03:33:54.079Z,67.20
2022-12-23T03:36:24.714Z,100.63
2022-12-23T03:38:49.839Z,82.03
2022-12-23T03:41:23.787Z,114.55
2022-12-23T03:43:54.794Z,83.13
2022-12-23T03:46:22.726Z,90.53
2022-12-23T03:48:54.489Z,81.43
2022-12-23T03:51:23.298Z,94.47
2022-12-23T03:53:57.504Z,116.65
2022-12-23T03:56:32.361Z,111.18
2022-12-23T03:59:13.022Z,102.72
2022-12-23T04:01:57.823Z,98.65
2022-12-23T04:04:43.570Z,87.67
2022-12-23T04:07:29.814Z,76.30
2022-12-23T04:09:54.328Z,86.82
2022-12-23T04:12:17.056Z,84.90
2022-12-23T04:14:47.311Z,129.02
2022-12-23T04:17:09.985Z,96.33
2022-12-23T04:19:33.475Z,79.07
2022-12-23T04:21:57.652Z,78.32
2022-12-23T04:24:20.308Z,75.78
2022-12-23T04:26:42.900Z,95.25
2022-12-23T04:29:05.876Z,85.37
2022-12-23T04:31:28.601Z,95.18
2022-12-23T04:33:51.384Z,83.80
2022-12-23T04:36:14.074Z,92.70
2022-12-23T04:38:37.243Z,83.65
2022-12-23T04:41:00.137Z,78.43
2022-12-23T04:43:22.829Z,62.42
2022-12-23T04:45:51.085Z,70.45
2022-12-23T04:48:13.708Z,83.25
2022-12-23T04:50:36.437Z,45.45
2022-12-23T04:52:59.126Z,56.90
2022-12-23T04:55:21.793Z,67.03
2022-12-23T04:57:44.357Z,77.03
2022-12-23T05:00:09.175Z,62.15
2022-12-23T05:02:31.924Z,63.63
2022-12-23T05:04:54.509Z,69.70
2022-12-23T05:07:18.234Z,71.57
2022-12-23T05:09:41.196Z,71.72
2022-12-23T05:12:03.937Z,88.15
2022-12-23T05:14:26.549Z,60.05
2022-12-23T05:16:49.223Z,63.83
2022-12-23T05:19:14.813Z,54.92
2022-12-23T05:21:37.597Z,77.15
2022-12-23T05:24:00.214Z,53.85
2022-12-23T05:26:23.495Z,55.78
2022-12-23T05:28:46.175Z,49.20
2022-12-23T05:31:09.121Z,54.60
2022-12-23T05:33:32.967Z,53.25
2022-12-23T05:35:56.571Z,46.58
2022-12-23T05:38:19.551Z,57.05
2022-12-23T05:40:42.349Z,54.90
2022-12-23T05:43:05.116Z,50.92
2022-12-23T05:45:27.786Z,50.90
2022-12-23T05:47:50.455Z,52.03
2022-12-23T05:50:13.392Z,55.30
2022-12-23T05:52:36.000Z,58.27
2022-12-23T05:54:58.608Z,57.90
2022-12-23T05:57:21.650Z,49.97
2022-12-23T05:59:45.427Z,51.15
2022-12-23T06:02:08.700Z,54.30
2022-12-23T06:04:31.568Z,53.80
2022-12-23T06:06:54.482Z,46.50
2022-12-23T06:09:17.331Z,49.80
2022-12-23T06:11:39.942Z,44.38
2022-12-23T06:14:02.881Z,47.45
2022-12-23T06:16:25.535Z,49.73
2022-12-23T06:18:48.250Z,55.17
2022-12-23T06:21:10.997Z,52.47
2022-12-23T06:23:33.587Z,51.22
2022-12-23T06:26:02.523Z,52.75
2022-12-23T06:28:25.163Z,56.90
2022-12-23T06:30:52.953Z,74.28
2022-12-23T06:33:15.825Z,55.05
2022-12-23T06:35:38.415Z,59.88
2022-12-23T06:38:01.164Z,69.57
2022-12-23T06:40:24.420Z,64.23
2022-12-23T06:42:47.488Z,61.80
2022-12-23T06:45:10.510Z,66.68
2022-12-23T06:47:33.202Z,68.20
2022-12-23T06:49:57.866Z,63.58
2022-12-23T06:52:23.153Z,75.33
2022-12-23T06:54:45.856Z,68.95
2022-12-23T06:57:08.547Z,63.67
2022-12-23T06:59:31.663Z,61.08
2022-12-23T07:01:54.534Z,58.08
2022-12-23T07:04:17.339Z,62.53
2022-12-23T07:06:40.000Z,56.70
2022-12-23T07:09:02.733Z,73.20
2022-12-23T07:11:25.757Z,71.47
2022-12-23T07:13:48.857Z,61.67
2022-12-23T07:16:11.632Z,78.47
2022-12-23T07:18:35.305Z,69.32
2022-12-23T07:21:00.766Z,60.03
2022-12-23T07:23:23.595Z,60.92
2022-12-23T07:25:46.218Z,68.32
2022-12-23T07:28:08.968Z,63.43
2022-12-23T07:30:31.562Z,60.60
2022-12-23T07:32:54.097Z,73.95
2022-12-23T07:35:17.081Z,56.13
2022-12-23T07:37:39.924Z,68.88
2022-12-23T07:40:09.494Z,54.00
2022-12-23T07:42:47.556Z,49.28
2022-12-23T07:45:10.761Z,49.53
2022-12-23T07:47:33.371Z,56.72
2022-12-23T07:49:56.287Z,59.28
2022-12-23T07:52:18.967Z,58.53
2022-12-23T07:54:41.635Z,61.78
2022-12-23T07:57:04.208Z,49.67
2022-12-23T07:59:27.542Z,57.10
2022-12-23T08:01:50.218Z,52.70
2022-12-23T08:04:12.919Z,47.27
2022-12-23T08:06:36.817Z,46.85
2022-12-23T08:08:59.360Z,45.08
2022-12-23T08:11:21.960Z,47.60
2022-12-23T08:13:45.417Z,43.85
2022-12-23T08:16:09.125Z,57.30
2022-12-23T08:18:34.511Z,46.40
2022-12-23T08:20:58.095Z,55.05
2022-12-23T08:23:24.719Z,52.28
2022-12-23T08:25:47.680Z,48.40
2022-12-23T08:28:10.360Z,60.50
2022-12-23T08:30:33.435Z,50.53
2022-12-23T08:32:56.128Z,54.88
2022-12-23T08:35:18.608Z,48.60
2022-12-23T08:37:41.165Z,70.43
2022-12-23T08:40:08.468Z,53.60
2022-12-23T08:42:31.906Z,59.15
2022-12-23T08:44:54.655Z,66.65
2022-12-23T08:47:17.296Z,65.88
2022-12-23T08:49:42.446Z,75.50
2022-12-23T08:52:05.084Z,93.93
2022-12-23T08:54:28.272Z,58.95
2022-12-23T08:56:51.203Z,61.40
2022-12-23T08:59:19.267Z,48.38
2022-12-23T09:01:43.131Z,52.80
2022-12-23T09:04:07.065Z,54.20
2022-12-23T09:06:33.607Z,59.40
2022-12-23T09:08:56.464Z,55.70
2022-12-23T09:11:24.918Z,56.67
2022-12-23T09:13:47.936Z,73.68
2022-12-23T09:16:11.006Z,71.67
2022-12-23T09:18:34.724Z,59.50
2022-12-23T09:21:02.611Z,52.33
2022-12-23T09:23:25.496Z,58.90
2022-12-23T09:25:48.484Z,61.03
2022-12-23T09:28:11.970Z,52.70
2022-12-23T09:30:34.733Z,49.67
2022-12-23T09:32:57.583Z,57.60
2022-12-23T09:35:20.211Z,57.30
2022-12-23T09:37:43.038Z,52.15
2022-12-23T09:40:06.577Z,58.87
2022-12-23T09:42:49.969Z,51.80
2022-12-23T09:45:40.727Z,50.95
2022-12-23T09:48:05.166Z,50.13
2022-12-23T09:50:33.517Z,50.13
2022-12-23T09:53:25.350Z,53.40
2022-12-23T09:56:02.304Z,60.53
2022-12-23T09:58:27.987Z,60.03
2022-12-23T10:01:44.460Z,62.20
2022-12-23T10:04:30.936Z,69.72
2022-12-23T10:07:03.717Z,70.80
2022-12-23T10:09:27.988Z,79.15
2022-12-23T10:11:53.416Z,81.70
2022-12-23T10:14:22.463Z,67.45
2022-12-23T10:16:52.122Z,72.90
2022-12-23T10:19:20.730Z,91.63
2022-12-23T10:21:49.300Z,83.97
2022-12-23T10:24:45.152Z,84.82
2022-12-23T10:27:22.854Z,82.47
2022-12-23T10:29:45.764Z,76.65
2022-12-23T10:32:17.246Z,68.93
2022-12-23T10:34:50.679Z,71.70
2022-12-23T10:37:38.947Z,65.30
2022-12-23T10:40:25.948Z,77.50
2022-12-23T10:42:57.275Z,62.78
2022-12-23T10:45:57.846Z,58.17
2022-12-23T10:48:27.617Z,60.15
2022-12-23T10:51:02.425Z,59.97
2022-12-23T10:53:40.954Z,63.97
2022-12-23T10:56:06.508Z,69.82
2022-12-23T10:58:29.714Z,63.80
2022-12-23T11:00:56.171Z,69.68
2022-12-23T11:03:28.887Z,77.13
2022-12-23T11:05:53.508Z,67.70
2022-12-23T11:08:17.061Z,62.72
2022-12-23T11:10:40.269Z,57.47
2022-12-23T11:13:02.805Z,56.78
2022-12-23T11:15:40.555Z,69.10
2022-12-23T11:18:05.967Z,58.63
2022-12-23T11:20:29.327Z,60.75
2022-12-23T11:22:54.555Z,58.13
2022-12-23T11:25:30.865Z,54.95
2022-12-23T11:27:58.047Z,56.90
2022-12-23T11:30:20.749Z,62.85
2022-12-23T11:32:43.444Z,60.25
2022-12-23T11:35:17.872Z,64.80
2022-12-23T11:37:43.786Z,60.10
2022-12-23T11:40:20.715Z,62.72
2022-12-23T11:42:43.410Z,60.30
2022-12-23T11:45:07.365Z,61.10
2022-12-23T11:47:41.049Z,60.47
2022-12-23T11:50:32.382Z,59.17
2022-12-23T11:53:20.171Z,57.10
2022-12-23T11:55:57.745Z,62.45
2022-12-23T11:58:22.583Z,61.55
2022-12-23T12:00:56.112Z,62.50
2022-12-23T12:03:20.944Z,64.93
2022-12-23T12:05:53.532Z,70.95
2022-12-23T12:08:21.211Z,71.68
2022-12-23T12:10:43.920Z,64.95
2022-12-23T12:13:20.673Z,69.37
2022-12-23T12:15:44.608Z,66.22
2022-12-23T12:18:11.193Z,67.50
2022-12-23T12:20:37.110Z,62.92
2022-12-23T12:23:04.466Z,68.43
2022-12-23T12:25:50.674Z,70.60
2022-12-23T12:28:24.129Z,69.25
2022-12-23T12:31:03.215Z,63.22
2022-12-23T12:33:33.952Z,71.45
2022-12-23T12:36:14.216Z,66.40
2022-12-23T12:38:40.361Z,77.17
2022-12-23T12:41:15.526Z,72.05
2022-12-23T12:43:42.192Z,73.90
2022-12-23T12:46:30.710Z,77.65
2022-12-23T12:48:59.883Z,69.32
2022-12-23T12:51:31.884Z,68.50
2022-12-23T12:54:14.436Z,71.70
2022-12-23T12:56:47.036Z,71.50
2022-12-23T12:59:35.619Z,64.60
2022-12-23T13:02:32.210Z,66.53
2022-12-23T13:05:25.409Z,73.73
2022-12-23T13:08:31.298Z,71.13
2022-12-23T13:11:18.804Z,71.00
2022-12-23T13:14:01.632Z,66.70
2022-12-23T13:16:33.956Z,70.93
2022-12-23T13:19:28.141Z,66.83
2022-12-23T13:22:29.399Z,68.90
2022-12-23T13:25:05.140Z,67.57
2022-12-23T13:27:42.156Z,72.05
2022-12-23T13:30:15.013Z,81.28
2022-12-23T13:32:44.947Z,80.07
2022-12-23T13:35:25.608Z,84.15
2022-12-23T13:37:59.286Z,85.80
2022-12-23T13:40:58.341Z,77.68
2022-12-23T13:43:23.898Z,88.75
2022-12-23T13:45:49.115Z,76.27
2022-12-23T13:48:30.254Z,84.57
2022-12-23T13:51:05.952Z,79.93
2022-12-23T13:54:04.853Z,77.53
2022-12-23T13:56:42.858Z,87.45
2022-12-23T13:59:10.767Z,93.27
2022-12-23T14:01:47.890Z,96.47
2022-12-23T14:04:56.723Z,95.28
2022-12-23T14:07:22.538Z,99.05
2022-12-23T14:09:55.753Z,111.03
2022-12-23T14:12:25.295Z,99.07
2022-12-23T14:14:59.537Z,90.97
2022-12-23T14:17:42.944Z,107.28
2022-12-23T14:20:43.484Z,106.00
2022-12-23T14:23:38.195Z,107.45
2022-12-23T14:26:06.195Z,92.87
2022-12-23T14:28:46.751Z,105.57
2022-12-23T14:31:28.892Z,101.35
2022-12-23T14:33:51.580Z,100.72
2022-12-23T14:36:27.162Z,98.72
2022-12-23T14:39:32.378Z,94.70
2022-12-23T14:42:00.163Z,90.70
2022-12-23T14:44:38.215Z,103.03
2022-12-23T14:47:00.927Z,102.90
2022-12-23T14:49:41.068Z,113.43
2022-12-23T14:52:39.194Z,102.40
2022-12-23T14:55:31.718Z,90.25
2022-12-23T14:58:13.504Z,94.90
2022-12-23T15:01:06.075Z,98.35
2022-12-23T15:03:34.432Z,161.80
2022-12-23T15:05:59.065Z,115.40
2022-12-23T15:08:29.211Z,119.93
2022-12-23T15:10:52.133Z,116.57
2022-12-23T15:13:18.093Z,140.45
2022-12-23T15:15:55.918Z,109.60
2022-12-23T15:18:22.391Z,116.03
2022-12-23T15:20:45.144Z,132.50
2022-12-23T15:23:17.507Z,172.10
2022-12-23T15:25:46.169Z,169.95
2022-12-23T15:28:17.130Z,106.25
2022-12-23T15:30:52.326Z,140.23
2022-12-23T15:33:51.960Z,125.25
2022-12-23T15:36:05.245Z,136.65
2022-12-23T15:38:30.945Z,127.68
2022-12-23T15:41:18.817Z,158.27
2022-12-23T15:43:41.965Z,141.77
2022-12-23T15:46:18.915Z,138.43
2022-12-23T15:48:43.938Z,196.55
2022-12-23T15:54:32.550Z,162.35
2022-12-23T15:56:57.732Z,137.63
2022-12-23T15:59:36.689Z,125.15
2022-12-23T16:02:32.172Z,139.13
2022-12-23T16:05:00.509Z,117.60
2022-12-23T16:07:38.293Z,92.57
2022-12-23T16:10:11.428Z,105.33
2022-12-23T16:12:35.092Z,102.20
2022-12-23T16:15:00.940Z,125.00
2022-12-23T16:17:35.199Z,119.13
2022-12-23T16:20:15.702Z,119.22
2022-12-23T16:22:38.845Z,134.63
2022-12-23T16:25:20.056Z,96.53
2022-12-23T16:27:46.542Z,131.30
2022-12-23T16:30:16.975Z,129.15
2022-12-23T16:33:07.736Z,115.75
2022-12-23T16:35:35.312Z,139.60
2022-12-23T16:38:23.572Z,120.88
2022-12-23T16:40:49.021Z,137.90
2022-12-23T16:43:12.706Z,116.57
2022-12-23T16:45:37.056Z,107.20
2022-12-23T16:47:59.979Z,94.23
2022-12-23T16:50:26.805Z,128.43
2022-12-23T16:52:49.374Z,181.80
2022-12-23T16:55:17.134Z,176.40
2022-12-23T16:57:40.127Z,103.53
2022-12-23T17:00:08.256Z,113.03
2022-12-23T17:02:34.622Z,119.53
2022-12-23T17:04:57.256Z,137.23
2022-12-23T17:07:25.111Z,142.88
2022-12-23T17:09:49.914Z,161.10
2022-12-23T17:12:12.816Z,190.60
2022-12-23T17:14:35.519Z,211.55
2022-12-23T17:17:01.119Z,132.70
2022-12-23T17:19:29.270Z,136.88
2022-12-23T17:21:58.284Z,135.98
2022-12-23T17:24:25.911Z,146.90
2022-12-23T17:26:48.727Z,156.95
2022-12-23T17:29:12.860Z,161.23
2022-12-23T17:31:35.638Z,131.18
2022-12-23T17:33:58.494Z,134.70
2022-12-23T17:36:21.910Z,124.67
2022-12-23T17:38:44.666Z,135.23
2022-12-23T17:41:12.389Z,222.15
2022-12-23T17:43:34.943Z,126.82
2022-12-23T17:45:57.579Z,201.55
2022-12-23T17:48:23.286Z,120.43
2022-12-23T17:50:49.632Z,116.65
2022-12-23T17:53:17.330Z,122.57
2022-12-23T17:55:39.954Z,124.15
2022-12-23T17:58:02.585Z,159.63
2022-12-23T18:00:33.778Z,168.80
2022-12-23T18:02:57.373Z,131.63
2022-12-23T18:05:31.757Z,101.88
2022-12-23T18:07:56.398Z,119.85
2022-12-23T18:10:22.761Z,158.60
2022-12-23T18:12:49.707Z,104.33
2022-12-23T18:15:27.038Z,103.18
2022-12-23T18:17:51.570Z,152.20
2022-12-23T18:20:20.040Z,133.63
2022-12-23T18:22:43.163Z,120.38
2022-12-23T18:25:06.303Z,95.47
2022-12-23T18:27:29.038Z,184.60
2022-12-23T18:29:52.701Z,135.02
2022-12-23T18:32:25.189Z,131.68
2022-12-23T18:34:48.325Z,125.72
2022-12-23T18:37:10.876Z,125.17
2022-12-23T18:39:33.592Z,105.28
2022-12-23T18:41:56.187Z,115.63
2022-12-23T18:44:20.864Z,133.75
2022-12-23T18:46:43.707Z,276.73
2022-12-23T18:49:06.433Z,125.23
2022-12-23T18:51:28.973Z,133.10
2022-12-23T18:53:51.664Z,112.60
2022-12-23T18:56:20.138Z,167.02
2022-12-23T18:58:43.244Z,132.07
2022-12-23T19:01:10.388Z,156.50
2022-12-23T19:03:33.666Z,170.82
2022-12-23T19:05:57.986Z,144.85
2022-12-23T19:08:26.239Z,154.85
2022-12-23T19:10:50.980Z,122.85
2022-12-23T19:13:14.679Z,189.70
2022-12-23T19:15:37.805Z,177.55
2022-12-23T19:18:00.524Z,145.00
2022-12-23T19:20:24.732Z,124.47
2022-12-23T19:22:48.292Z,192.50
2022-12-23T19:25:14.042Z,139.90
2022-12-23T19:27:39.252Z,219.95
2022-12-23T19:30:04.041Z,183.73
2022-12-23T19:32:28.233Z,206.32
2022-12-23T19:34:50.993Z,163.93
2022-12-23T19:37:13.684Z,142.70
2022-12-23T19:39:40.969Z,200.27
2022-12-23T19:42:03.706Z,133.10
2022-12-23T19:44:26.593Z,139.82
2022-12-23T19:46:49.621Z,164.00
2022-12-23T19:49:19.205Z,173.37
2022-12-23T19:51:43.121Z,149.38
2022-12-23T19:54:05.751Z,188.38
2022-12-23T19:56:30.147Z,136.15
2022-12-23T19:58:53.099Z,136.98
2022-12-23T20:01:21.848Z,174.73
2022-12-23T20:03:46.328Z,166.23
2022-12-23T20:06:15.249Z,145.00
2022-12-23T20:08:37.778Z,150.50
2022-12-23T20:11:05.571Z,134.98
2022-12-23T20:13:28.207Z,161.93
2022-12-23T20:15:51.152Z,137.63
2022-12-23T20:18:13.762Z,143.15
2022-12-23T20:20:37.743Z,144.65
2022-12-23T20:23:00.578Z,132.23
2022-12-23T20:25:23.543Z,140.77
2022-12-23T20:27:46.313Z,161.50
2022-12-23T20:30:11.049Z,185.93
2022-12-23T20:32:35.310Z,116.43
2022-12-23T20:34:58.181Z,106.15
2022-12-23T20:37:20.790Z,109.40
2022-12-23T20:39:45.636Z,131.05
2022-12-23T20:42:08.619Z,118.25
2022-12-23T20:44:36.099Z,105.55
2022-12-23T20:46:59.425Z,96.03
2022-12-23T20:49:22.148Z,98.10
2022-12-23T20:51:44.839Z,84.03
2022-12-23T20:54:07.518Z,92.45
2022-12-23T20:56:30.530Z,88.00
2022-12-23T20:58:54.801Z,89.05
2022-12-23T21:01:17.470Z,98.40
2022-12-23T21:03:41.129Z,95.32
2022-12-23T21:06:04.214Z,124.55
2022-12-23T21:08:26.905Z,121.30
2022-12-23T21:10:54.996Z,112.28
2022-12-23T21:13:17.644Z,125.70
2022-12-23T21:15:40.275Z,131.55
2022-12-23T21:18:03.313Z,141.23
2022-12-23T21:20:25.911Z,96.82
2022-12-23T21:22:48.554Z,100.50
2022-12-23T21:25:11.251Z,96.77
2022-12-23T21:27:34.215Z,86.25
2022-12-23T21:29:58.599Z,86.70
2022-12-23T21:32:21.351Z,79.22
2022-12-23T21:34:43.947Z,72.13
2022-12-23T21:37:06.690Z,99.57
2022-12-23T21:39:29.661Z,107.55
2022-12-23T21:41:53.124Z,93.55
2022-12-23T21:44:15.721Z,104.43
2022-12-23T21:46:38.403Z,133.57
2022-12-23T21:49:01.204Z,129.53
2022-12-23T21:51:40.142Z,95.95
2022-12-23T21:54:05.532Z,110.82
2022-12-23T21:56:30.228Z,169.05
2022-12-23T21:59:01.287Z,82.50
2022-12-23T22:01:24.631Z,76.50
2022-12-23T22:03:49.355Z,120.25
2022-12-23T22:06:15.187Z,85.53
2022-12-23T22:08:39.037Z,77.65
2022-12-23T22:11:06.877Z,79.10
2022-12-23T22:13:29.508Z,82.00
2022-12-23T22:15:52.251Z,74.57
2022-12-23T22:18:15.278Z,79.43
2022-12-23T22:20:45.866Z,70.38
2022-12-23T22:23:08.850Z,65.13
2022-12-23T22:25:31.468Z,62.67
2022-12-23T22:27:54.087Z,61.80
2022-12-23T22:30:20.180Z,64.30
2022-12-23T22:32:42.893Z,67.75
2022-12-23T22:35:06.109Z,67.68
2022-12-23T22:37:28.786Z,75.37
2022-12-23T22:39:51.748Z,73.90
2022-12-23T22:42:14.711Z,79.50
2022-12-23T22:44:37.415Z,86.10
2022-12-23T22:47:00.131Z,89.18
2022-12-23T22:49:22.769Z,76.80
2022-12-23T22:51:45.528Z,94.20
2022-12-23T22:54:08.544Z,80.90
2022-12-23T22:56:31.286Z,87.97
2022-12-23T22:58:54.710Z,85.63
2022-12-23T23:01:23.261Z,87.70
2022-12-23T23:03:45.911Z,99.10
2022-12-23T23:06:11.197Z,90.32
2022-12-23T23:08:34.809Z,84.70
2022-12-23T23:10:59.027Z,91.15
2022-12-23T23:13:21.700Z,94.97
2022-12-23T23:15:47.061Z,94.55
2022-12-23T23:18:09.599Z,108.95
2022-12-23T23:20:32.420Z,115.93
2022-12-23T23:22:54.980Z,107.63
2022-12-23T23:25:17.676Z,97.60
2022-12-23T23:27:40.572Z,85.32
2022-12-23T23:30:03.881Z,89.72
2022-12-23T23:32:27.212Z,97.22
2022-12-23T23:34:49.933Z,82.97
2022-12-23T23:37:14.180Z,105.87
2022-12-23T23:39:38.331Z,91.47
2022-12-23T23:42:00.951Z,90.50
2022-12-23T23:44:23.732Z,109.95
2022-12-23T23:46:47.387Z,123.18
2022-12-23T23:49:10.321Z,125.20
2022-12-23T23:51:32.924Z,118.63
2022-12-23T23:53:55.599Z,85.63
2022-12-23T23:56:23.766Z,93.38
2022-12-23T23:58:48.355Z,95.45
